createdAt,value
2023-05-19T00:01:39.114Z,88.19
2023-05-19T00:06:42.454Z,88.82
2023-05-19T00:11:45.638Z,89.04
2023-05-19T00:16:48.928Z,88.26
2023-05-19T00:21:51.765Z,88.10
2023-05-19T00:26:54.742Z,89.19
2023-05-19T00:31:57.681Z,88.94
2023-05-19T00:37:00.485Z,88.72
2023-05-19T00:42:03.516Z,88.63
2023-05-19T00:47:07.165Z,88.46
2023-05-19T00:52:09.986Z,88.66
2023-05-19T00:57:13.896Z,88.40
2023-05-19T01:02:16.685Z,88.49
2023-05-19T01:07:20.072Z,88.98
2023-05-19T01:12:22.834Z,88.99
2023-05-19T01:17:40.463Z,89.21
2023-05-19T01:23:09.203Z,89.65
2023-05-19T01:29:09.331Z,90.15
2023-05-19T01:34:12.291Z,90.23
2023-05-19T01:39:15.138Z,89.79
2023-05-19T01:44:18.109Z,90.36
2023-05-19T01:49:20.949Z,90.39
2023-05-19T01:54:23.722Z,90.25
2023-05-19T01:59:52.500Z,90.63
2023-05-19T02:04:59.907Z,90.60
2023-05-19T02:10:13.293Z,90.10
2023-05-19T02:15:17.828Z,90.05
2023-05-19T02:20:22.425Z,90.40
2023-05-19T02:25:25.330Z,91.59
2023-05-19T02:30:28.382Z,91.63
2023-05-19T02:35:31.139Z,91.98
2023-05-19T02:40:34.324Z,93.02
2023-05-19T02:45:37.364Z,93.24
2023-05-19T02:50:40.170Z,92.94
2023-05-19T02:55:42.988Z,92.93
2023-05-19T03:00:45.910Z,92.57
2023-05-19T03:05:48.757Z,92.82
2023-05-19T03:10:53.030Z,92.62
2023-05-19T03:15:59.257Z,92.57
2023-05-19T03:21:02.107Z,93.01
2023-05-19T03:26:05.037Z,92.89
2023-05-19T03:31:07.923Z,92.68
2023-05-19T03:36:12.730Z,93.40
2023-05-19T03:41:15.640Z,93.95
2023-05-19T03:46:18.674Z,93.89
2023-05-19T03:51:21.764Z,94.48
2023-05-19T03:56:26.601Z,94.61
2023-05-19T04:01:29.653Z,95.29
2023-05-19T04:06:33.984Z,95.68
2023-05-19T04:11:37.440Z,96.61
2023-05-19T04:16:40.272Z,96.85
2023-05-19T04:21:43.082Z,97.32
2023-05-19T04:26:47.359Z,96.81
2023-05-19T04:31:50.164Z,96.19
2023-05-19T04:36:53.485Z,96.52
2023-05-19T04:41:56.742Z,96.57
2023-05-19T04:47:00.269Z,96.64
2023-05-19T04:52:03.589Z,96.66
2023-05-19T04:57:07.526Z,96.37
2023-05-19T05:02:10.868Z,95.91
2023-05-19T05:07:13.898Z,95.60
2023-05-19T05:12:18.896Z,95.74
2023-05-19T05:17:22.360Z,95.60
2023-05-19T05:22:26.104Z,95.18
2023-05-19T05:27:29.042Z,95.00
2023-05-19T05:32:32.060Z,95.04
2023-05-19T05:37:34.968Z,94.69
2023-05-19T05:42:37.793Z,94.44
2023-05-19T05:47:41.625Z,94.14
2023-05-19T05:52:48.864Z,94.15
2023-05-19T05:57:51.798Z,94.00
2023-05-19T06:02:54.637Z,93.82
2023-05-19T06:07:57.639Z,93.82
2023-05-19T06:13:00.422Z,93.54
2023-05-19T06:18:03.483Z,93.11
2023-05-19T06:23:06.427Z,92.63
2023-05-19T06:28:09.279Z,92.59
2023-05-19T06:33:12.285Z,92.31
2023-05-19T06:38:15.254Z,91.78
2023-05-19T06:43:18.035Z,91.90
2023-05-19T06:48:20.834Z,91.87
2023-05-19T06:53:23.692Z,91.55
2023-05-19T06:58:27.172Z,91.95
2023-05-19T07:03:31.120Z,92.05
2023-05-19T07:08:35.337Z,92.52
2023-05-19T07:13:38.242Z,92.24
2023-05-19T07:18:41.149Z,91.72
2023-05-19T07:23:44.166Z,91.71
2023-05-19T07:28:46.953Z,91.84
2023-05-19T07:33:50.338Z,91.83
2023-05-19T07:38:54.683Z,91.90
2023-05-19T07:43:57.603Z,92.04
2023-05-19T07:49:00.513Z,91.72
2023-05-19T07:54:03.438Z,91.49
2023-05-19T07:59:07.960Z,91.41
2023-05-19T08:04:12.886Z,91.04
2023-05-19T08:09:16.172Z,90.74
2023-05-19T08:14:20.555Z,90.83
2023-05-19T08:19:23.586Z,90.16
2023-05-19T08:24:30.243Z,90.01
2023-05-19T08:29:33.158Z,89.59
2023-05-19T08:34:36.205Z,89.51
2023-05-19T08:39:39.047Z,89.33
2023-05-19T08:44:44.130Z,89.44
2023-05-19T08:49:50.531Z,88.99
2023-05-19T08:55:00.934Z,88.93
2023-05-19T09:00:09.328Z,88.39
2023-05-19T09:05:12.146Z,88.09
2023-05-19T09:10:16.256Z,87.91
2023-05-19T09:15:19.352Z,86.75
2023-05-19T09:20:22.500Z,86.14
2023-05-19T09:25:26.459Z,86.48
2023-05-19T09:30:29.477Z,86.64
2023-05-19T09:35:32.518Z,86.25
2023-05-19T09:40:35.652Z,85.08
2023-05-19T09:45:38.683Z,84.55
2023-05-19T09:50:45.638Z,84.64
2023-05-19T09:55:50.187Z,83.95
2023-05-19T10:00:54.889Z,84.34
2023-05-19T10:05:57.860Z,83.67
2023-05-19T10:11:00.952Z,84.36
2023-05-19T10:16:04.205Z,83.73
2023-05-19T10:21:08.216Z,83.12
2023-05-19T10:26:11.472Z,81.89
2023-05-19T10:31:18.122Z,81.15
2023-05-19T10:36:42.397Z,79.29
2023-05-19T10:41:54.134Z,79.47
2023-05-19T10:46:57.314Z,79.72
2023-05-19T10:52:00.324Z,79.96
2023-05-19T10:57:03.376Z,79.28
2023-05-19T11:02:07.170Z,78.14
2023-05-19T11:07:10.607Z,78.58
2023-05-19T11:12:13.511Z,77.22
2023-05-19T11:17:16.397Z,77.81
2023-05-19T11:22:26.388Z,77.11
2023-05-19T11:27:31.820Z,77.00
2023-05-19T11:32:36.052Z,75.86
2023-05-19T11:37:40.765Z,75.72
2023-05-19T11:42:45.004Z,76.16
2023-05-19T11:48:01.417Z,75.55
2023-05-19T11:53:05.718Z,74.44
2023-05-19T11:58:09.275Z,74.69
2023-05-19T12:03:12.204Z,74.75
2023-05-19T12:08:17.896Z,74.59
2023-05-19T12:13:22.835Z,74.07
2023-05-19T12:18:30.756Z,73.49
2023-05-19T12:23:33.797Z,73.30
2023-05-19T12:28:36.709Z,73.83
2023-05-19T12:33:39.605Z,73.65
2023-05-19T12:38:43.554Z,73.53
2023-05-19T12:43:46.425Z,72.92
2023-05-19T12:48:49.326Z,73.09
2023-05-19T12:53:52.187Z,72.92
2023-05-19T12:58:55.162Z,73.19
2023-05-19T13:03:58.181Z,73.04
2023-05-19T13:09:01.346Z,72.77
2023-05-19T13:14:04.292Z,72.15
2023-05-19T13:19:17.514Z,73.06
2023-05-19T13:24:27.130Z,73.48
2023-05-19T13:29:30.067Z,72.93
2023-05-19T13:34:32.905Z,73.45
2023-05-19T13:39:35.975Z,72.96
2023-05-19T13:44:38.915Z,73.77
2023-05-19T13:50:29.033Z,73.90
2023-05-19T13:55:32.982Z,74.71
2023-05-19T14:00:37.304Z,74.42
2023-05-19T14:05:40.177Z,74.28
2023-05-19T14:10:43.484Z,74.32
2023-05-19T14:15:46.392Z,74.25
2023-05-19T14:20:49.295Z,74.09
2023-05-19T14:25:52.140Z,74.31
2023-05-19T14:30:55.268Z,74.84
2023-05-19T14:36:00.319Z,74.89
2023-05-19T14:41:03.453Z,75.00
2023-05-19T14:46:06.368Z,74.99
2023-05-19T14:51:09.256Z,74.74
2023-05-19T14:56:12.012Z,75.20
2023-05-19T15:01:14.920Z,75.37
2023-05-19T15:06:17.862Z,75.16
2023-05-19T15:11:20.877Z,75.18
2023-05-19T15:16:23.850Z,75.57
2023-05-19T15:21:26.769Z,75.86
2023-05-19T15:26:29.833Z,75.97
2023-05-19T15:31:33.379Z,76.04
2023-05-19T15:36:37.257Z,76.43
2023-05-19T15:41:40.117Z,76.53
2023-05-19T15:46:43.029Z,76.50
2023-05-19T15:51:46.066Z,76.57
2023-05-19T15:56:48.886Z,76.84
2023-05-19T16:01:53.127Z,77.27
2023-05-19T16:06:56.346Z,77.59
2023-05-19T16:11:59.146Z,77.75
2023-05-19T16:17:11.415Z,78.09
2023-05-19T16:22:14.352Z,78.45
2023-05-19T16:27:17.314Z,78.60
2023-05-19T16:32:20.371Z,79.23
2023-05-19T16:37:23.152Z,79.69
2023-05-19T16:42:27.175Z,79.41
2023-05-19T16:47:30.049Z,80.14
2023-05-19T16:52:32.926Z,80.41
2023-05-19T16:57:35.957Z,80.64
2023-05-19T17:02:48.225Z,80.98
2023-05-19T17:07:51.424Z,81.25
2023-05-19T17:12:54.266Z,81.12
2023-05-19T17:17:57.095Z,81.60
2023-05-19T17:22:59.895Z,81.99
2023-05-19T17:28:05.539Z,81.96
2023-05-19T17:33:08.384Z,82.23
2023-05-19T17:38:11.260Z,82.50
2023-05-19T17:43:14.100Z,82.51
2023-05-19T17:48:16.890Z,82.91
2023-05-19T17:53:20.057Z,82.98
2023-05-19T17:58:23.427Z,83.34
2023-05-19T18:03:26.864Z,83.46
2023-05-19T18:08:31.280Z,83.74
2023-05-19T18:13:34.122Z,83.79
2023-05-19T18:18:37.595Z,84.11
2023-05-19T18:23:41.583Z,84.39
2023-05-19T18:28:44.540Z,84.29
2023-05-19T18:33:47.437Z,84.42
2023-05-19T18:38:50.610Z,84.58
2023-05-19T18:43:54.066Z,84.68
2023-05-19T18:48:57.161Z,84.70
2023-05-19T18:53:59.972Z,84.99
2023-05-19T18:59:03.004Z,85.30
2023-05-19T19:04:05.959Z,85.39
2023-05-19T19:09:08.921Z,85.43
2023-05-19T19:14:12.194Z,85.60
2023-05-19T19:19:15.190Z,85.84
2023-05-19T19:24:18.017Z,85.96
2023-05-19T19:29:22.366Z,85.97
2023-05-19T19:34:25.840Z,86.12
2023-05-19T19:39:28.766Z,86.49
2023-05-19T19:44:31.622Z,86.79
2023-05-19T19:49:34.584Z,87.04
2023-05-19T19:54:37.487Z,87.14
2023-05-19T19:59:40.481Z,87.46
2023-05-19T20:04:43.497Z,87.42
2023-05-19T20:09:47.113Z,87.96
2023-05-19T20:14:51.642Z,87.94
2023-05-19T20:19:54.492Z,88.14
2023-05-19T20:24:57.480Z,88.23
2023-05-19T20:30:00.818Z,88.16
2023-05-19T20:35:03.912Z,88.42
2023-05-19T20:40:07.645Z,88.29
2023-05-19T20:45:10.567Z,88.49
2023-05-19T20:50:13.501Z,88.86
2023-05-19T20:55:16.377Z,89.02
2023-05-19T21:00:19.186Z,89.23
2023-05-19T21:05:22.337Z,89.40
2023-05-19T21:10:25.200Z,89.40
2023-05-19T21:15:28.014Z,89.11
2023-05-19T21:20:30.847Z,89.67
2023-05-19T21:25:33.856Z,90.01
2023-05-19T21:30:36.626Z,90.06
2023-05-19T21:35:39.393Z,90.02
2023-05-19T21:40:42.276Z,90.56
2023-05-19T21:45:45.060Z,90.53
2023-05-19T21:50:55.030Z,90.79
2023-05-19T21:55:57.883Z,91.02
2023-05-19T22:01:01.564Z,90.90
2023-05-19T22:06:06.487Z,90.83
2023-05-19T22:11:09.466Z,91.15
2023-05-19T22:16:12.428Z,91.08
2023-05-19T22:21:15.222Z,91.20
2023-05-19T22:26:18.055Z,91.46
2023-05-19T22:31:21.613Z,91.45
2023-05-19T22:36:24.434Z,91.51
2023-05-19T22:41:27.299Z,91.57
2023-05-19T22:46:30.181Z,91.41
2023-05-19T22:51:33.623Z,91.39
2023-05-19T22:56:36.682Z,91.24
2023-05-19T23:01:39.709Z,91.27
2023-05-19T23:06:42.748Z,91.19
2023-05-19T23:11:46.103Z,91.10
2023-05-19T23:16:49.033Z,90.83
2023-05-19T23:21:52.018Z,90.85
2023-05-19T23:26:54.958Z,90.77
2023-05-19T23:31:57.719Z,90.70
2023-05-19T23:37:00.562Z,90.71
2023-05-19T23:42:03.551Z,90.47
2023-05-19T23:47:06.907Z,90.52
2023-05-19T23:52:09.924Z,90.51
2023-05-19T23:57:12.718Z,90.41
